sensor_id;sensor_type;location;lat;lon;timestamp;P1;durP1;ratioP1;P2;durP2;ratioP2
21521;SDS011;10922;45.572;10.002;2023-05-07T00:01:42;15.87;;;13.87;;
21521;SDS011;10922;45.572;10.002;2023-05-07T00:04:08;14.90;;;13.40;;
21521;SDS011;10922;45.572;10.002;2023-05-07T00:06:33;15.10;;;13.37;;
21521;SDS011;10922;45.572;10.002;2023-05-07T00:08:59;14.50;;;13.07;;
21521;SDS011;10922;45.572;10.002;2023-05-07T00:11:26;13.67;;;12.30;;
21521;SDS011;10922;45.572;10.002;2023-05-07T00:13:52;11.67;;;10.57;;
21521;SDS011;10922;45.572;10.002;2023-05-07T00:16:18;11.53;;;10.53;;
21521;SDS011;10922;45.572;10.002;2023-05-07T00:18:43;11.07;;;10.00;;
21521;SDS011;10922;45.572;10.002;2023-05-07T00:21:10;10.80;;;9.80;;
21521;SDS011;10922;45.572;10.002;2023-05-07T00:23:35;10.83;;;9.73;;
21521;SDS011;10922;45.572;10.002;2023-05-07T00:26:02;9.90;;;9.10;;
21521;SDS011;10922;45.572;10.002;2023-05-07T00:28:29;10.20;;;9.30;;
21521;SDS011;10922;45.572;10.002;2023-05-07T00:30:55;9.73;;;8.87;;
21521;SDS011;10922;45.572;10.002;2023-05-07T00:33:21;9.60;;;8.73;;
21521;SDS011;10922;45.572;10.002;2023-05-07T00:35:47;10.73;;;8.80;;
21521;SDS011;10922;45.572;10.002;2023-05-07T00:38:13;8.80;;;8.00;;
21521;SDS011;10922;45.572;10.002;2023-05-07T00:40:39;8.00;;;7.23;;
21521;SDS011;10922;45.572;10.002;2023-05-07T00:43:05;9.10;;;8.30;;
21521;SDS011;10922;45.572;10.002;2023-05-07T00:45:31;8.10;;;7.30;;
21521;SDS011;10922;45.572;10.002;2023-05-07T00:48:00;7.80;;;7.00;;
21521;SDS011;10922;45.572;10.002;2023-05-07T00:50:27;8.00;;;7.20;;
21521;SDS011;10922;45.572;10.002;2023-05-07T00:52:53;8.37;;;6.80;;
21521;SDS011;10922;45.572;10.002;2023-05-07T00:55:20;6.57;;;6.00;;
21521;SDS011;10922;45.572;10.002;2023-05-07T00:57:47;7.00;;;6.40;;
21521;SDS011;10922;45.572;10.002;2023-05-07T01:00:13;6.53;;;6.03;;
21521;SDS011;10922;45.572;10.002;2023-05-07T01:02:39;6.90;;;5.60;;
21521;SDS011;10922;45.572;10.002;2023-05-07T01:05:05;5.63;;;4.87;;
21521;SDS011;10922;45.572;10.002;2023-05-07T01:07:34;4.93;;;4.50;;
21521;SDS011;10922;45.572;10.002;2023-05-07T01:10:02;5.53;;;5.00;;
21521;SDS011;10922;45.572;10.002;2023-05-07T01:12:29;4.70;;;4.37;;
21521;SDS011;10922;45.572;10.002;2023-05-07T01:14:56;4.63;;;4.27;;
21521;SDS011;10922;45.572;10.002;2023-05-07T01:17:22;4.47;;;4.03;;
21521;SDS011;10922;45.572;10.002;2023-05-07T01:19:48;4.57;;;4.17;;
21521;SDS011;10922;45.572;10.002;2023-05-07T01:22:15;4.50;;;4.10;;
21521;SDS011;10922;45.572;10.002;2023-05-07T01:24:45;4.50;;;4.10;;
21521;SDS011;10922;45.572;10.002;2023-05-07T01:27:11;4.10;;;3.80;;
21521;SDS011;10922;45.572;10.002;2023-05-07T01:29:37;4.23;;;3.90;;
21521;SDS011;10922;45.572;10.002;2023-05-07T01:32:02;4.00;;;3.70;;
21521;SDS011;10922;45.572;10.002;2023-05-07T01:34:30;5.03;;;4.13;;
21521;SDS011;10922;45.572;10.002;2023-05-07T01:36:58;4.67;;;4.23;;
21521;SDS011;10922;45.572;10.002;2023-05-07T01:39:24;7.43;;;4.67;;
21521;SDS011;10922;45.572;10.002;2023-05-07T01:41:52;4.33;;;3.77;;
21521;SDS011;10922;45.572;10.002;2023-05-07T01:44:22;4.63;;;4.13;;
21521;SDS011;10922;45.572;10.002;2023-05-07T01:46:48;4.10;;;3.80;;
21521;SDS011;10922;45.572;10.002;2023-05-07T01:49:15;5.30;;;4.80;;
21521;SDS011;10922;45.572;10.002;2023-05-07T01:51:41;4.80;;;4.40;;
21521;SDS011;10922;45.572;10.002;2023-05-07T01:54:08;4.60;;;4.03;;
21521;SDS011;10922;45.572;10.002;2023-05-07T01:56:34;5.47;;;4.10;;
21521;SDS011;10922;45.572;10.002;2023-05-07T01:59:00;3.47;;;3.27;;
21521;SDS011;10922;45.572;10.002;2023-05-07T02:01:28;5.87;;;3.73;;
21521;SDS011;10922;45.572;10.002;2023-05-07T02:03:53;6.83;;;4.00;;
21521;SDS011;10922;45.572;10.002;2023-05-07T02:06:19;3.90;;;3.10;;
21521;SDS011;10922;45.572;10.002;2023-05-07T02:08:46;4.57;;;2.57;;
21521;SDS011;10922;45.572;10.002;2023-05-07T02:11:12;3.63;;;2.90;;
21521;SDS011;10922;45.572;10.002;2023-05-07T02:13:38;4.80;;;2.77;;
21521;SDS011;10922;45.572;10.002;2023-05-07T02:16:04;6.80;;;3.27;;
21521;SDS011;10922;45.572;10.002;2023-05-07T02:18:30;8.10;;;3.33;;
21521;SDS011;10922;45.572;10.002;2023-05-07T02:20:56;5.07;;;3.07;;
21521;SDS011;10922;45.572;10.002;2023-05-07T02:23:22;3.83;;;2.70;;
21521;SDS011;10922;45.572;10.002;2023-05-07T02:25:48;3.00;;;2.70;;
21521;SDS011;10922;45.572;10.002;2023-05-07T02:28:13;3.60;;;2.80;;
21521;SDS011;10922;45.572;10.002;2023-05-07T02:30:39;2.73;;;2.40;;
21521;SDS011;10922;45.572;10.002;2023-05-07T02:33:05;4.70;;;2.40;;
21521;SDS011;10922;45.572;10.002;2023-05-07T02:35:32;2.93;;;2.40;;
21521;SDS011;10922;45.572;10.002;2023-05-07T02:37:57;2.80;;;2.10;;
21521;SDS011;10922;45.572;10.002;2023-05-07T02:40:23;3.90;;;2.27;;
21521;SDS011;10922;45.572;10.002;2023-05-07T02:42:49;4.07;;;2.17;;
21521;SDS011;10922;45.572;10.002;2023-05-07T02:45:15;2.40;;;2.20;;
21521;SDS011;10922;45.572;10.002;2023-05-07T02:47:40;1.93;;;1.83;;
21521;SDS011;10922;45.572;10.002;2023-05-07T02:50:06;2.57;;;2.13;;
21521;SDS011;10922;45.572;10.002;2023-05-07T02:52:32;2.40;;;2.20;;
21521;SDS011;10922;45.572;10.002;2023-05-07T02:55:00;2.73;;;1.90;;
21521;SDS011;10922;45.572;10.002;2023-05-07T02:57:26;1.90;;;1.80;;
21521;SDS011;10922;45.572;10.002;2023-05-07T02:59:51;1.90;;;1.70;;
21521;SDS011;10922;45.572;10.002;2023-05-07T03:02:17;1.77;;;1.67;;
21521;SDS011;10922;45.572;10.002;2023-05-07T03:04:43;1.80;;;1.70;;
21521;SDS011;10922;45.572;10.002;2023-05-07T03:07:08;1.80;;;1.70;;
21521;SDS011;10922;45.572;10.002;2023-05-07T03:09:34;1.93;;;1.83;;
21521;SDS011;10922;45.572;10.002;2023-05-07T03:11:59;1.60;;;1.50;;
21521;SDS011;10922;45.572;10.002;2023-05-07T03:14:26;2.43;;;2.00;;
21521;SDS011;10922;45.572;10.002;2023-05-07T03:16:52;1.50;;;1.40;;
21521;SDS011;10922;45.572;10.002;2023-05-07T03:19:18;1.97;;;1.37;;
21521;SDS011;10922;45.572;10.002;2023-05-07T03:21:43;1.87;;;1.53;;
21521;SDS011;10922;45.572;10.002;2023-05-07T03:24:09;1.73;;;1.63;;
21521;SDS011;10922;45.572;10.002;2023-05-07T03:26:34;2.83;;;1.40;;
21521;SDS011;10922;45.572;10.002;2023-05-07T03:29:00;1.70;;;1.60;;
21521;SDS011;10922;45.572;10.002;2023-05-07T03:31:26;1.57;;;1.47;;
21521;SDS011;10922;45.572;10.002;2023-05-07T03:33:56;1.67;;;1.57;;
21521;SDS011;10922;45.572;10.002;2023-05-07T03:36:22;1.80;;;1.70;;
21521;SDS011;10922;45.572;10.002;2023-05-07T03:38:49;1.70;;;1.50;;
21521;SDS011;10922;45.572;10.002;2023-05-07T03:41:15;1.73;;;1.63;;
21521;SDS011;10922;45.572;10.002;2023-05-07T03:43:41;2.47;;;1.43;;
21521;SDS011;10922;45.572;10.002;2023-05-07T03:46:06;2.53;;;1.73;;
21521;SDS011;10922;45.572;10.002;2023-05-07T03:48:32;2.60;;;1.57;;
21521;SDS011;10922;45.572;10.002;2023-05-07T03:50:58;1.90;;;1.50;;
21521;SDS011;10922;45.572;10.002;2023-05-07T03:53:24;3.27;;;1.60;;
21521;SDS011;10922;45.572;10.002;2023-05-07T03:55:50;2.13;;;1.90;;
21521;SDS011;10922;45.572;10.002;2023-05-07T03:58:16;2.13;;;1.23;;
21521;SDS011;10922;45.572;10.002;2023-05-07T04:00:41;2.80;;;1.50;;
21521;SDS011;10922;45.572;10.002;2023-05-07T04:03:07;1.23;;;1.13;;
21521;SDS011;10922;45.572;10.002;2023-05-07T04:05:33;1.50;;;1.40;;
21521;SDS011;10922;45.572;10.002;2023-05-07T04:07:59;1.90;;;1.50;;
21521;SDS011;10922;45.572;10.002;2023-05-07T04:10:25;1.27;;;0.90;;
21521;SDS011;10922;45.572;10.002;2023-05-07T04:12:53;1.63;;;1.20;;
21521;SDS011;10922;45.572;10.002;2023-05-07T04:15:18;2.83;;;1.53;;
21521;SDS011;10922;45.572;10.002;2023-05-07T04:17:44;2.10;;;1.60;;
21521;SDS011;10922;45.572;10.002;2023-05-07T04:20:14;2.70;;;1.63;;
21521;SDS011;10922;45.572;10.002;2023-05-07T04:22:40;1.63;;;1.53;;
21521;SDS011;10922;45.572;10.002;2023-05-07T04:25:06;2.13;;;1.30;;
21521;SDS011;10922;45.572;10.002;2023-05-07T04:27:34;3.07;;;1.00;;
21521;SDS011;10922;45.572;10.002;2023-05-07T04:30:00;1.40;;;1.30;;
21521;SDS011;10922;45.572;10.002;2023-05-07T04:32:26;1.23;;;1.13;;
21521;SDS011;10922;45.572;10.002;2023-05-07T04:34:51;1.97;;;1.53;;
21521;SDS011;10922;45.572;10.002;2023-05-07T04:37:17;1.80;;;1.50;;
21521;SDS011;10922;45.572;10.002;2023-05-07T04:39:43;1.60;;;1.50;;
21521;SDS011;10922;45.572;10.002;2023-05-07T04:42:09;1.40;;;1.40;;
21521;SDS011;10922;45.572;10.002;2023-05-07T04:44:35;1.97;;;1.50;;
21521;SDS011;10922;45.572;10.002;2023-05-07T04:47:02;1.57;;;1.43;;
21521;SDS011;10922;45.572;10.002;2023-05-07T04:49:27;1.70;;;1.60;;
21521;SDS011;10922;45.572;10.002;2023-05-07T04:51:53;3.03;;;1.60;;
21521;SDS011;10922;45.572;10.002;2023-05-07T04:54:19;1.80;;;1.67;;
21521;SDS011;10922;45.572;10.002;2023-05-07T04:56:44;3.57;;;1.33;;
21521;SDS011;10922;45.572;10.002;2023-05-07T04:59:10;1.33;;;1.23;;
21521;SDS011;10922;45.572;10.002;2023-05-07T05:01:35;2.23;;;1.50;;
21521;SDS011;10922;45.572;10.002;2023-05-07T05:04:02;2.40;;;1.60;;
21521;SDS011;10922;45.572;10.002;2023-05-07T05:06:28;4.47;;;2.10;;
21521;SDS011;10922;45.572;10.002;2023-05-07T05:08:54;2.27;;;1.60;;
21521;SDS011;10922;45.572;10.002;2023-05-07T05:11:20;2.13;;;1.90;;
21521;SDS011;10922;45.572;10.002;2023-05-07T05:13:46;1.67;;;1.57;;
21521;SDS011;10922;45.572;10.002;2023-05-07T05:16:14;2.87;;;1.60;;
21521;SDS011;10922;45.572;10.002;2023-05-07T05:18:40;1.70;;;1.60;;
21521;SDS011;10922;45.572;10.002;2023-05-07T05:21:06;1.63;;;1.50;;
21521;SDS011;10922;45.572;10.002;2023-05-07T05:23:31;2.27;;;1.50;;
21521;SDS011;10922;45.572;10.002;2023-05-07T05:25:57;2.03;;;1.63;;
21521;SDS011;10922;45.572;10.002;2023-05-07T05:28:23;2.23;;;1.57;;
21521;SDS011;10922;45.572;10.002;2023-05-07T05:30:49;3.33;;;1.30;;
21521;SDS011;10922;45.572;10.002;2023-05-07T05:33:15;1.40;;;1.30;;
21521;SDS011;10922;45.572;10.002;2023-05-07T05:35:41;2.47;;;1.50;;
21521;SDS011;10922;45.572;10.002;2023-05-07T05:38:07;1.57;;;1.47;;
21521;SDS011;10922;45.572;10.002;2023-05-07T05:40:33;1.33;;;1.20;;
21521;SDS011;10922;45.572;10.002;2023-05-07T05:42:59;1.43;;;1.33;;
21521;SDS011;10922;45.572;10.002;2023-05-07T05:45:24;1.20;;;1.20;;
21521;SDS011;10922;45.572;10.002;2023-05-07T05:47:50;2.23;;;1.63;;
21521;SDS011;10922;45.572;10.002;2023-05-07T05:50:16;1.90;;;1.10;;
21521;SDS011;10922;45.572;10.002;2023-05-07T05:52:41;1.17;;;1.07;;
21521;SDS011;10922;45.572;10.002;2023-05-07T05:55:07;3.90;;;3.13;;
21521;SDS011;10922;45.572;10.002;2023-05-07T05:57:34;2.13;;;1.60;;
21521;SDS011;10922;45.572;10.002;2023-05-07T06:00:00;1.10;;;1.10;;
21521;SDS011;10922;45.572;10.002;2023-05-07T06:02:27;1.40;;;1.30;;
21521;SDS011;10922;45.572;10.002;2023-05-07T06:04:53;1.30;;;1.20;;
21521;SDS011;10922;45.572;10.002;2023-05-07T06:07:18;1.30;;;1.20;;
21521;SDS011;10922;45.572;10.002;2023-05-07T06:09:44;0.97;;;0.93;;
21521;SDS011;10922;45.572;10.002;2023-05-07T06:12:11;1.10;;;1.07;;
21521;SDS011;10922;45.572;10.002;2023-05-07T06:14:37;1.20;;;1.10;;
21521;SDS011;10922;45.572;10.002;2023-05-07T06:17:02;1.23;;;1.13;;
21521;SDS011;10922;45.572;10.002;2023-05-07T06:19:28;1.43;;;0.90;;
21521;SDS011;10922;45.572;10.002;2023-05-07T06:21:54;1.10;;;1.10;;
21521;SDS011;10922;45.572;10.002;2023-05-07T06:24:21;1.50;;;1.07;;
21521;SDS011;10922;45.572;10.002;2023-05-07T06:26:47;1.80;;;1.70;;
21521;SDS011;10922;45.572;10.002;2023-05-07T06:29:13;2.57;;;2.20;;
21521;SDS011;10922;45.572;10.002;2023-05-07T06:31:39;3.80;;;1.40;;
21521;SDS011;10922;45.572;10.002;2023-05-07T06:34:06;2.87;;;2.37;;
21521;SDS011;10922;45.572;10.002;2023-05-07T06:36:32;2.43;;;1.20;;
21521;SDS011;10922;45.572;10.002;2023-05-07T06:38:58;1.40;;;1.30;;
21521;SDS011;10922;45.572;10.002;2023-05-07T06:41:23;1.70;;;1.20;;
21521;SDS011;10922;45.572;10.002;2023-05-07T06:43:49;1.63;;;1.53;;
21521;SDS011;10922;45.572;10.002;2023-05-07T06:46:15;1.27;;;1.23;;
21521;SDS011;10922;45.572;10.002;2023-05-07T06:48:41;1.67;;;1.37;;
21521;SDS011;10922;45.572;10.002;2023-05-07T06:51:09;2.03;;;1.30;;
21521;SDS011;10922;45.572;10.002;2023-05-07T07:07:27;1.40;;;1.30;;
21521;SDS011;10922;45.572;10.002;2023-05-07T07:09:52;1.30;;;1.20;;
21521;SDS011;10922;45.572;10.002;2023-05-07T07:12:18;1.60;;;1.50;;
21521;SDS011;10922;45.572;10.002;2023-05-07T07:14:43;1.97;;;1.53;;
21521;SDS011;10922;45.572;10.002;2023-05-07T07:17:09;1.63;;;1.53;;
21521;SDS011;10922;45.572;10.002;2023-05-07T07:19:35;3.50;;;1.37;;
21521;SDS011;10922;45.572;10.002;2023-05-07T07:22:01;1.63;;;1.30;;
21521;SDS011;10922;45.572;10.002;2023-05-07T07:24:26;1.17;;;1.00;;
21521;SDS011;10922;45.572;10.002;2023-05-07T07:26:52;1.23;;;1.13;;
21521;SDS011;10922;45.572;10.002;2023-05-07T07:29:18;1.10;;;1.00;;
21521;SDS011;10922;45.572;10.002;2023-05-07T07:31:44;1.03;;;1.03;;
21521;SDS011;10922;45.572;10.002;2023-05-07T07:34:09;2.10;;;1.27;;
21521;SDS011;10922;45.572;10.002;2023-05-07T07:36:35;1.60;;;1.50;;
21521;SDS011;10922;45.572;10.002;2023-05-07T07:39:01;7.70;;;1.67;;
21521;SDS011;10922;45.572;10.002;2023-05-07T07:41:26;1.53;;;1.40;;
21521;SDS011;10922;45.572;10.002;2023-05-07T07:43:52;2.33;;;1.73;;
21521;SDS011;10922;45.572;10.002;2023-05-07T07:46:18;1.80;;;1.23;;
21521;SDS011;10922;45.572;10.002;2023-05-07T07:48:43;1.67;;;1.57;;
21521;SDS011;10922;45.572;10.002;2023-05-07T07:51:09;2.00;;;1.90;;
21521;SDS011;10922;45.572;10.002;2023-05-07T07:53:35;2.20;;;1.80;;
21521;SDS011;10922;45.572;10.002;2023-05-07T07:56:01;3.70;;;2.70;;
21521;SDS011;10922;45.572;10.002;2023-05-07T07:58:26;3.17;;;2.87;;
21521;SDS011;10922;45.572;10.002;2023-05-07T08:00:52;2.60;;;2.40;;
21521;SDS011;10922;45.572;10.002;2023-05-07T08:03:19;7.10;;;4.87;;
21521;SDS011;10922;45.572;10.002;2023-05-07T08:05:45;5.70;;;5.10;;
21521;SDS011;10922;45.572;10.002;2023-05-07T08:08:11;5.18;;;4.78;;
21521;SDS011;10922;45.572;10.002;2023-05-07T08:10:36;4.97;;;4.53;;
21521;SDS011;10922;45.572;10.002;2023-05-07T08:13:04;5.88;;;5.13;;
21521;SDS011;10922;45.572;10.002;2023-05-07T08:15:30;9.07;;;8.20;;
21521;SDS011;10922;45.572;10.002;2023-05-07T08:17:56;9.07;;;8.18;;
21521;SDS011;10922;45.572;10.002;2023-05-07T08:20:24;12.18;;;10.82;;
21521;SDS011;10922;45.572;10.002;2023-05-07T08:22:51;12.75;;;11.15;;
21521;SDS011;10922;45.572;10.002;2023-05-07T08:25:16;14.05;;;12.55;;
21521;SDS011;10922;45.572;10.002;2023-05-07T08:27:42;14.18;;;12.77;;
21521;SDS011;10922;45.572;10.002;2023-05-07T08:30:09;15.85;;;13.60;;
21521;SDS011;10922;45.572;10.002;2023-05-07T08:32:35;17.10;;;15.25;;
21521;SDS011;10922;45.572;10.002;2023-05-07T08:35:01;16.17;;;14.68;;
21521;SDS011;10922;45.572;10.002;2023-05-07T08:37:27;14.85;;;13.43;;
21521;SDS011;10922;45.572;10.002;2023-05-07T08:39:53;15.65;;;14.05;;
21521;SDS011;10922;45.572;10.002;2023-05-07T08:42:18;18.33;;;14.18;;
21521;SDS011;10922;45.572;10.002;2023-05-07T08:44:47;16.08;;;14.27;;
21521;SDS011;10922;45.572;10.002;2023-05-07T08:47:19;16.02;;;14.20;;
21521;SDS011;10922;45.572;10.002;2023-05-07T08:49:47;17.75;;;15.85;;
21521;SDS011;10922;45.572;10.002;2023-05-07T08:52:14;16.65;;;14.98;;
21521;SDS011;10922;45.572;10.002;2023-05-07T08:54:40;15.40;;;13.90;;
21521;SDS011;10922;45.572;10.002;2023-05-07T08:57:06;15.38;;;13.95;;
21521;SDS011;10922;45.572;10.002;2023-05-07T08:59:32;14.18;;;12.68;;
21521;SDS011;10922;45.572;10.002;2023-05-07T09:01:57;14.15;;;12.75;;
21521;SDS011;10922;45.572;10.002;2023-05-07T09:04:23;13.98;;;12.63;;
21521;SDS011;10922;45.572;10.002;2023-05-07T09:06:49;13.70;;;12.30;;
21521;SDS011;10922;45.572;10.002;2023-05-07T09:09:16;13.27;;;12.05;;
21521;SDS011;10922;45.572;10.002;2023-05-07T09:11:45;15.38;;;13.00;;
21521;SDS011;10922;45.572;10.002;2023-05-07T09:14:11;13.88;;;12.57;;
21521;SDS011;10922;45.572;10.002;2023-05-07T09:16:37;14.40;;;12.95;;
21521;SDS011;10922;45.572;10.002;2023-05-07T09:19:03;13.90;;;12.52;;
21521;SDS011;10922;45.572;10.002;2023-05-07T09:21:29;15.00;;;13.25;;
21521;SDS011;10922;45.572;10.002;2023-05-07T09:23:55;14.07;;;12.65;;
21521;SDS011;10922;45.572;10.002;2023-05-07T09:26:21;13.63;;;11.60;;
21521;SDS011;10922;45.572;10.002;2023-05-07T09:28:47;12.45;;;11.15;;
21521;SDS011;10922;45.572;10.002;2023-05-07T09:31:13;15.30;;;12.20;;
21521;SDS011;10922;45.572;10.002;2023-05-07T09:33:39;16.02;;;12.95;;
21521;SDS011;10922;45.572;10.002;2023-05-07T09:36:06;11.35;;;10.25;;
21521;SDS011;10922;45.572;10.002;2023-05-07T09:38:33;11.02;;;9.73;;
21521;SDS011;10922;45.572;10.002;2023-05-07T09:41:03;11.55;;;10.43;;
21521;SDS011;10922;45.572;10.002;2023-05-07T09:43:33;11.10;;;10.18;;
21521;SDS011;10922;45.572;10.002;2023-05-07T09:46:03;11.15;;;10.05;;
21521;SDS011;10922;45.572;10.002;2023-05-07T09:48:35;9.15;;;8.35;;
21521;SDS011;10922;45.572;10.002;2023-05-07T09:51:04;8.90;;;7.28;;
21521;SDS011;10922;45.572;10.002;2023-05-07T09:53:40;8.20;;;7.50;;
21521;SDS011;10922;45.572;10.002;2023-05-07T09:56:07;9.38;;;8.48;;
21521;SDS011;10922;45.572;10.002;2023-05-07T09:58:33;9.60;;;8.60;;
21521;SDS011;10922;45.572;10.002;2023-05-07T10:01:02;9.52;;;8.57;;
21521;SDS011;10922;45.572;10.002;2023-05-07T10:03:29;11.07;;;8.48;;
21521;SDS011;10922;45.572;10.002;2023-05-07T10:05:58;8.50;;;7.70;;
21521;SDS011;10922;45.572;10.002;2023-05-07T10:08:24;8.80;;;7.97;;
21521;SDS011;10922;45.572;10.002;2023-05-07T10:10:50;10.52;;;9.63;;
21521;SDS011;10922;45.572;10.002;2023-05-07T10:13:16;9.18;;;8.27;;
21521;SDS011;10922;45.572;10.002;2023-05-07T10:15:44;10.07;;;8.77;;
21521;SDS011;10922;45.572;10.002;2023-05-07T10:18:10;10.07;;;9.07;;
21521;SDS011;10922;45.572;10.002;2023-05-07T10:20:37;9.27;;;8.48;;
21521;SDS011;10922;45.572;10.002;2023-05-07T10:23:04;8.52;;;7.68;;
21521;SDS011;10922;45.572;10.002;2023-05-07T10:25:31;9.38;;;8.48;;
21521;SDS011;10922;45.572;10.002;2023-05-07T10:28:02;8.80;;;8.13;;
21521;SDS011;10922;45.572;10.002;2023-05-07T10:30:38;7.60;;;7.00;;
21521;SDS011;10922;45.572;10.002;2023-05-07T10:33:27;7.40;;;6.63;;
21521;SDS011;10922;45.572;10.002;2023-05-07T10:35:57;8.70;;;7.90;;
21521;SDS011;10922;45.572;10.002;2023-05-07T10:38:26;9.25;;;8.38;;
21521;SDS011;10922;45.572;10.002;2023-05-07T10:40:52;8.05;;;7.40;;
21521;SDS011;10922;45.572;10.002;2023-05-07T10:43:18;10.50;;;7.88;;
21521;SDS011;10922;45.572;10.002;2023-05-07T10:45:53;9.35;;;8.50;;
21521;SDS011;10922;45.572;10.002;2023-05-07T10:49:25;9.27;;;8.48;;
21521;SDS011;10922;45.572;10.002;2023-05-07T10:51:32;8.77;;;8.10;;
21521;SDS011;10922;45.572;10.002;2023-05-07T10:56:40;10.73;;;9.73;;
21521;SDS011;10922;45.572;10.002;2023-05-07T11:02:03;10.18;;;9.07;;
21521;SDS011;10922;45.572;10.002;2023-05-07T11:04:31;12.50;;;10.30;;
21521;SDS011;10922;45.572;10.002;2023-05-07T11:15:05;10.77;;;9.73;;
21521;SDS011;10922;45.572;10.002;2023-05-07T11:17:34;11.52;;;10.27;;
21521;SDS011;10922;45.572;10.002;2023-05-07T11:20:17;10.10;;;9.10;;
21521;SDS011;10922;45.572;10.002;2023-05-07T11:22:43;9.90;;;9.00;;
21521;SDS011;10922;45.572;10.002;2023-05-07T11:25:08;10.25;;;9.25;;
21521;SDS011;10922;45.572;10.002;2023-05-07T11:27:34;10.85;;;9.77;;
21521;SDS011;10922;45.572;10.002;2023-05-07T11:30:00;11.25;;;10.23;;
21521;SDS011;10922;45.572;10.002;2023-05-07T11:32:27;11.25;;;10.25;;
21521;SDS011;10922;45.572;10.002;2023-05-07T11:34:54;11.82;;;10.73;;
21521;SDS011;10922;45.572;10.002;2023-05-07T11:37:21;11.75;;;10.68;;
21521;SDS011;10922;45.572;10.002;2023-05-07T11:39:47;11.45;;;10.35;;
21521;SDS011;10922;45.572;10.002;2023-05-07T11:42:29;10.85;;;9.77;;
21521;SDS011;10922;45.572;10.002;2023-05-07T11:44:55;11.07;;;10.15;;
21521;SDS011;10922;45.572;10.002;2023-05-07T11:47:21;11.43;;;10.32;;
21521;SDS011;10922;45.572;10.002;2023-05-07T11:49:48;9.98;;;9.05;;
21521;SDS011;10922;45.572;10.002;2023-05-07T11:52:14;10.60;;;9.63;;
21521;SDS011;10922;45.572;10.002;2023-05-07T11:54:41;9.98;;;9.07;;
21521;SDS011;10922;45.572;10.002;2023-05-07T11:57:16;10.13;;;9.07;;
21521;SDS011;10922;45.572;10.002;2023-05-07T11:59:42;9.55;;;8.65;;
21521;SDS011;10922;45.572;10.002;2023-05-07T12:02:13;8.18;;;7.45;;
21521;SDS011;10922;45.572;10.002;2023-05-07T12:04:42;7.60;;;6.90;;
21521;SDS011;10922;45.572;10.002;2023-05-07T12:07:11;7.75;;;7.03;;
21521;SDS011;10922;45.572;10.002;2023-05-07T12:09:38;7.00;;;6.30;;
21521;SDS011;10922;45.572;10.002;2023-05-07T12:12:05;6.85;;;6.25;;
21521;SDS011;10922;45.572;10.002;2023-05-07T12:14:31;7.25;;;6.57;;
21521;SDS011;10922;45.572;10.002;2023-05-07T12:16:57;5.28;;;4.88;;
21521;SDS011;10922;45.572;10.002;2023-05-07T12:19:27;6.68;;;6.03;;
21521;SDS011;10922;45.572;10.002;2023-05-07T12:21:54;6.65;;;6.10;;
21521;SDS011;10922;45.572;10.002;2023-05-07T12:24:21;7.25;;;6.55;;
21521;SDS011;10922;45.572;10.002;2023-05-07T12:26:47;5.82;;;5.40;;
21521;SDS011;10922;45.572;10.002;2023-05-07T12:29:13;5.68;;;5.18;;
21521;SDS011;10922;45.572;10.002;2023-05-07T12:31:42;5.05;;;4.55;;
21521;SDS011;10922;45.572;10.002;2023-05-07T12:34:08;4.68;;;4.30;;
21521;SDS011;10922;45.572;10.002;2023-05-07T12:36:38;4.10;;;3.80;;
21521;SDS011;10922;45.572;10.002;2023-05-07T12:39:08;6.28;;;3.42;;
21521;SDS011;10922;45.572;10.002;2023-05-07T12:44:21;3.70;;;3.40;;
21521;SDS011;10922;45.572;10.002;2023-05-07T12:46:48;2.72;;;2.53;;
21521;SDS011;10922;45.572;10.002;2023-05-07T12:49:14;2.30;;;2.20;;
21521;SDS011;10922;45.572;10.002;2023-05-07T12:51:40;2.80;;;2.60;;
21521;SDS011;10922;45.572;10.002;2023-05-07T12:54:06;2.20;;;2.05;;
21521;SDS011;10922;45.572;10.002;2023-05-07T12:56:31;2.83;;;2.60;;
21521;SDS011;10922;45.572;10.002;2023-05-07T12:59:00;2.03;;;1.70;;
21521;SDS011;10922;45.572;10.002;2023-05-07T13:01:29;1.90;;;1.80;;
21521;SDS011;10922;45.572;10.002;2023-05-07T13:04:01;2.47;;;2.13;;
21521;SDS011;10922;45.572;10.002;2023-05-07T13:06:29;2.25;;;2.10;;
21521;SDS011;10922;45.572;10.002;2023-05-07T13:08:55;2.83;;;2.05;;
21521;SDS011;10922;45.572;10.002;2023-05-07T13:11:21;1.65;;;1.55;;
21521;SDS011;10922;45.572;10.002;2023-05-07T13:13:48;5.43;;;1.90;;
21521;SDS011;10922;45.572;10.002;2023-05-07T13:16:13;7.22;;;1.95;;
21521;SDS011;10922;45.572;10.002;2023-05-07T13:18:39;1.90;;;1.80;;
21521;SDS011;10922;45.572;10.002;2023-05-07T13:21:05;1.90;;;1.80;;
21521;SDS011;10922;45.572;10.002;2023-05-07T13:23:31;2.17;;;1.98;;
21521;SDS011;10922;45.572;10.002;2023-05-07T13:25:56;2.05;;;1.95;;
21521;SDS011;10922;45.572;10.002;2023-05-07T13:28:23;1.95;;;1.85;;
21521;SDS011;10922;45.572;10.002;2023-05-07T13:30:49;1.95;;;1.85;;
21521;SDS011;10922;45.572;10.002;2023-05-07T13:33:16;1.70;;;1.70;;
21521;SDS011;10922;45.572;10.002;2023-05-07T13:35:42;2.95;;;2.28;;
21521;SDS011;10922;45.572;10.002;2023-05-07T13:38:08;2.13;;;2.03;;
21521;SDS011;10922;45.572;10.002;2023-05-07T13:40:34;2.00;;;1.88;;
21521;SDS011;10922;45.572;10.002;2023-05-07T13:43:00;2.10;;;2.00;;
21521;SDS011;10922;45.572;10.002;2023-05-07T13:45:29;2.92;;;1.88;;
21521;SDS011;10922;45.572;10.002;2023-05-07T13:47:55;1.75;;;1.65;;
21521;SDS011;10922;45.572;10.002;2023-05-07T13:50:21;1.70;;;1.60;;
21521;SDS011;10922;45.572;10.002;2023-05-07T13:52:47;1.95;;;1.85;;
21521;SDS011;10922;45.572;10.002;2023-05-07T13:55:16;2.50;;;2.38;;
21521;SDS011;10922;45.572;10.002;2023-05-07T13:57:46;2.22;;;2.13;;
21521;SDS011;10922;45.572;10.002;2023-05-07T14:00:12;2.20;;;2.10;;
21521;SDS011;10922;45.572;10.002;2023-05-07T14:02:38;2.00;;;1.90;;
21521;SDS011;10922;45.572;10.002;2023-05-07T14:05:04;2.45;;;2.35;;
21521;SDS011;10922;45.572;10.002;2023-05-07T14:07:30;2.85;;;2.75;;
21521;SDS011;10922;45.572;10.002;2023-05-07T14:09:56;3.00;;;2.90;;
21521;SDS011;10922;45.572;10.002;2023-05-07T14:12:22;2.60;;;2.40;;
21521;SDS011;10922;45.572;10.002;2023-05-07T14:14:47;2.50;;;2.40;;
21521;SDS011;10922;45.572;10.002;2023-05-07T14:17:15;2.63;;;2.45;;
21521;SDS011;10922;45.572;10.002;2023-05-07T14:19:43;2.70;;;2.50;;
21521;SDS011;10922;45.572;10.002;2023-05-07T14:22:13;2.10;;;2.00;;
21521;SDS011;10922;45.572;10.002;2023-05-07T14:24:39;2.47;;;2.28;;
21521;SDS011;10922;45.572;10.002;2023-05-07T14:27:08;2.47;;;2.38;;
21521;SDS011;10922;45.572;10.002;2023-05-07T14:29:33;2.05;;;1.95;;
21521;SDS011;10922;45.572;10.002;2023-05-07T14:32:00;2.60;;;2.50;;
21521;SDS011;10922;45.572;10.002;2023-05-07T14:34:27;2.28;;;2.03;;
21521;SDS011;10922;45.572;10.002;2023-05-07T14:36:52;2.17;;;2.03;;
21521;SDS011;10922;45.572;10.002;2023-05-07T14:39:18;2.80;;;2.60;;
21521;SDS011;10922;45.572;10.002;2023-05-07T14:41:43;3.13;;;2.60;;
21521;SDS011;10922;45.572;10.002;2023-05-07T14:44:09;2.45;;;2.20;;
21521;SDS011;10922;45.572;10.002;2023-05-07T14:46:35;2.97;;;2.78;;
21521;SDS011;10922;45.572;10.002;2023-05-07T14:49:01;2.85;;;2.65;;
21521;SDS011;10922;45.572;10.002;2023-05-07T14:51:28;2.72;;;2.53;;
21521;SDS011;10922;45.572;10.002;2023-05-07T14:53:54;3.55;;;3.25;;
21521;SDS011;10922;45.572;10.002;2023-05-07T14:56:19;3.00;;;2.70;;
21521;SDS011;10922;45.572;10.002;2023-05-07T14:58:46;3.20;;;3.00;;